Portada
METAR-TAF:

METAR-TAF

Aeropuertos :

Aeropuerto de Rabat-Salé

Rabat, Marruecos

latitud: 34-03N, longitud: 006-46W, altitud: 84 m

Observación

El informe se hizo hace 36 minutos, a las 07:30 UTC
Viento 5 kt del oeste, variando entre oeste-suroeste y noroeste
Temperatura 22°C
Humedad 73%
Presión 1016 hPa
Visibilidad 10 km o más
Cielo cubierto a una altura de 1600 ft

METAR: GMME 140730Z 26005KT 240V310 9999 OVC016 22/17 Q1016 NOSIG

Hora: 09:06 (08:06 UTC)

Pronóstico

El informe se hizo hace 3 horas y 6 minutos, a las 05:00 UTC
Pronóstico válido del 14 a las 06 UTC al 15 a las 12 UTC
Viento 10 kt del oeste-noroeste
Visibilidad 10 km o más
Nubes dispersas a una altura de 3000 ft
Temporalmente
del 14 a las 18 UTC al 14 a las 24 UTC
Viento 6 kt del suroeste

TAF: GMME 140500Z 1406/1512 30010KT 9999 SCT030 TEMPO 1418/1424 22006KT

Observaciones y pronósticos meteorológicos de más de 4000 aeropuertos (mensajes METAR y TAF).

Los puntos amarillos y rojos representan las estaciones disponibles.

Ponga el ratón en el punto deseado para ver el nombre de la estación.

Haga clic para ver las observaciones y los pronósticos meteorológicos.

Para cambiar el mapa : haga clic en los botones verdes con una cruz de color negro para hacer un zoom, en el botón verde con un guión para alejar o en las flechas verdes para mapas adyacentes.


METAR-TAF: